createdAt,value
2022-09-11T00:00:36.566Z,78.92
2022-09-11T00:03:39.090Z,78.34
2022-09-11T00:06:41.548Z,78.55
2022-09-11T00:09:44.192Z,78.29
2022-09-11T00:12:49.599Z,78.47
2022-09-11T00:15:52.843Z,77.93
2022-09-11T00:18:57.448Z,77.55
2022-09-11T00:22:00.005Z,77.02
2022-09-11T00:25:02.663Z,77.21
2022-09-11T00:28:06.615Z,77.12
2022-09-11T00:31:12.430Z,77.25
2022-09-11T00:34:15.007Z,77.37
2022-09-11T00:37:17.606Z,77.10
2022-09-11T00:40:20.613Z,76.99
2022-09-11T00:43:24.947Z,77.27
2022-09-11T00:46:34.120Z,77.04
2022-09-11T00:49:39.749Z,77.06
2022-09-11T00:52:45.023Z,77.50
2022-09-11T00:55:50.887Z,77.37
2022-09-11T00:58:55.832Z,76.79
2022-09-11T01:01:58.748Z,76.74
2022-09-11T01:05:01.511Z,76.54
2022-09-11T01:08:04.562Z,76.02
2022-09-11T01:11:18.595Z,75.97
2022-09-11T01:14:34.482Z,76.41
2022-09-11T01:17:43.986Z,76.81
2022-09-11T01:21:02.133Z,76.94
2022-09-11T01:24:19.061Z,76.69
2022-09-11T01:27:31.910Z,76.49
2022-09-11T01:30:38.246Z,77.88
2022-09-11T01:33:44.803Z,81.14
2022-09-11T01:36:53.692Z,81.58
2022-09-11T01:40:01.714Z,82.23
2022-09-11T01:43:09.594Z,82.57
2022-09-11T01:46:13.979Z,81.96
2022-09-11T01:49:19.959Z,82.11
2022-09-11T01:52:28.034Z,82.56
2022-09-11T01:55:32.870Z,83.48
2022-09-11T01:58:37.948Z,83.82
2022-09-11T02:01:43.411Z,83.23
2022-09-11T02:04:47.707Z,82.64
2022-09-11T02:07:53.872Z,82.84
2022-09-11T02:11:03.395Z,83.00
2022-09-11T02:14:10.618Z,82.73
2022-09-11T02:17:18.610Z,82.98
2022-09-11T02:20:21.634Z,83.26
2022-09-11T02:23:24.128Z,83.28
2022-09-11T02:26:28.194Z,83.13
2022-09-11T02:29:32.473Z,82.02
2022-09-11T02:32:37.485Z,82.00
2022-09-11T02:35:48.636Z,81.63
2022-09-11T02:38:59.821Z,80.70
2022-09-11T02:42:14.042Z,80.88
2022-09-11T02:45:28.720Z,80.76
2022-09-11T02:48:40.693Z,79.79
2022-09-11T02:51:56.289Z,79.24
2022-09-11T02:55:08.058Z,79.46
2022-09-11T02:58:16.034Z,79.15
2022-09-11T03:01:19.869Z,79.37
2022-09-11T03:04:24.754Z,79.37
2022-09-11T03:07:27.488Z,79.67
2022-09-11T03:10:30.044Z,79.24
2022-09-11T03:13:33.420Z,79.60
2022-09-11T03:16:37.608Z,79.75
2022-09-11T03:19:40.177Z,79.84
2022-09-11T03:22:42.672Z,79.77
2022-09-11T03:25:45.272Z,80.00
2022-09-11T03:28:47.765Z,79.98
2022-09-11T03:31:52.003Z,79.98
2022-09-11T03:34:54.625Z,80.35
2022-09-11T03:37:57.536Z,80.31
2022-09-11T03:41:00.084Z,80.42
2022-09-11T03:44:02.822Z,80.82
2022-09-11T03:47:07.113Z,81.00
2022-09-11T03:50:10.752Z,81.00
2022-09-11T03:53:14.044Z,80.95
2022-09-11T03:56:16.591Z,80.75
2022-09-11T03:59:20.256Z,80.82
2022-09-11T04:02:24.419Z,81.02
2022-09-11T04:05:27.335Z,80.23
2022-09-11T04:08:33.469Z,80.56
2022-09-11T04:11:38.780Z,81.11
2022-09-11T04:14:41.938Z,80.77
2022-09-11T04:17:46.156Z,81.10
2022-09-11T04:20:48.668Z,81.32
2022-09-11T04:23:52.421Z,81.26
2022-09-11T04:26:59.984Z,81.09
2022-09-11T04:30:03.233Z,80.29
2022-09-11T04:33:07.435Z,79.97
2022-09-11T04:36:12.959Z,79.39
2022-09-11T04:39:16.030Z,79.18
2022-09-11T04:42:18.560Z,79.28
2022-09-11T04:45:21.285Z,79.84
2022-09-11T04:48:25.327Z,79.37
2022-09-11T04:51:30.134Z,78.90
2022-09-11T04:54:33.824Z,78.52
2022-09-11T04:57:36.316Z,78.24
2022-09-11T05:00:39.303Z,77.69
2022-09-11T05:03:43.881Z,77.45
2022-09-11T05:06:48.218Z,77.61
2022-09-11T05:09:52.591Z,77.64
2022-09-11T05:12:55.133Z,77.77
2022-09-11T05:16:02.065Z,77.02
2022-09-11T05:19:06.523Z,77.08
2022-09-11T05:22:09.045Z,77.20
2022-09-11T05:25:11.636Z,77.13
2022-09-11T05:28:14.117Z,76.96
2022-09-11T05:31:17.759Z,76.69
2022-09-11T05:34:22.140Z,76.95
2022-09-11T05:37:25.400Z,76.55
2022-09-11T05:40:27.966Z,76.12
2022-09-11T05:43:31.002Z,75.56
2022-09-11T05:46:33.511Z,75.83
2022-09-11T05:49:37.312Z,75.73
2022-09-11T05:52:40.035Z,75.11
2022-09-11T05:55:42.583Z,74.31
2022-09-11T05:58:46.210Z,74.47
2022-09-11T06:01:48.729Z,74.12
2022-09-11T06:04:52.792Z,74.14
2022-09-11T06:07:55.277Z,74.25
2022-09-11T06:10:59.574Z,73.94
2022-09-11T06:14:02.215Z,73.59
2022-09-11T06:17:06.371Z,73.24
2022-09-11T06:20:12.383Z,73.60
2022-09-11T06:23:14.996Z,72.64
2022-09-11T06:26:19.587Z,72.22
2022-09-11T06:29:22.396Z,71.81
2022-09-11T06:32:25.009Z,71.43
2022-09-11T06:35:29.903Z,71.57
2022-09-11T06:38:33.094Z,71.75
2022-09-11T06:41:35.785Z,71.20
2022-09-11T06:44:38.416Z,72.19
2022-09-11T06:47:41.027Z,71.61
2022-09-11T06:50:44.890Z,71.12
2022-09-11T06:53:48.628Z,71.53
2022-09-11T06:56:51.430Z,71.38
2022-09-11T06:59:53.949Z,71.33
2022-09-11T07:02:56.911Z,69.35
2022-09-11T07:06:01.007Z,68.78
2022-09-11T07:09:03.724Z,68.84
2022-09-11T07:12:06.631Z,68.33
2022-09-11T07:15:10.768Z,69.59
2022-09-11T07:18:13.266Z,68.88
2022-09-11T07:21:19.025Z,68.94
2022-09-11T07:24:21.604Z,69.09
2022-09-11T07:27:24.507Z,69.81
2022-09-11T07:30:27.208Z,69.71
2022-09-11T07:33:29.910Z,69.41
2022-09-11T07:36:37.435Z,67.79
2022-09-11T07:39:40.217Z,66.46
2022-09-11T07:42:42.841Z,66.94
2022-09-11T07:45:45.525Z,65.85
2022-09-11T07:48:48.053Z,66.32
2022-09-11T07:51:52.415Z,66.82
2022-09-11T07:54:55.001Z,67.25
2022-09-11T07:57:57.523Z,68.01
2022-09-11T08:01:00.155Z,67.76
2022-09-11T08:04:04.196Z,67.92
2022-09-11T08:07:08.055Z,66.51
2022-09-11T08:10:26.813Z,66.52
2022-09-11T08:13:30.658Z,65.65
2022-09-11T08:16:34.228Z,63.65
2022-09-11T08:19:36.820Z,64.32
2022-09-11T08:22:42.001Z,63.43
2022-09-11T08:25:45.144Z,62.19
2022-09-11T08:28:48.028Z,60.02
2022-09-11T08:31:50.473Z,59.41
2022-09-11T08:34:52.976Z,58.09
2022-09-11T08:37:56.776Z,57.01
2022-09-11T08:40:59.922Z,55.24
2022-09-11T08:44:05.420Z,53.53
2022-09-11T08:47:11.226Z,53.62
2022-09-11T08:50:20.367Z,54.89
2022-09-11T08:53:25.045Z,59.07
2022-09-11T08:56:30.107Z,60.11
2022-09-11T08:59:42.010Z,61.71
2022-09-11T09:03:20.687Z,64.81
2022-09-11T09:06:35.549Z,65.07
2022-09-11T09:09:45.708Z,64.48
2022-09-11T09:12:53.145Z,61.17
2022-09-11T09:16:05.805Z,58.32
2022-09-11T09:19:14.359Z,56.48
2022-09-11T09:22:20.640Z,53.41
2022-09-11T09:25:25.325Z,53.00
2022-09-11T09:28:32.638Z,50.62
2022-09-11T09:31:38.933Z,49.25
2022-09-11T09:34:43.227Z,47.70
2022-09-11T09:37:45.800Z,49.32
2022-09-11T09:40:56.249Z,49.16
2022-09-11T09:44:05.091Z,49.31
2022-09-11T09:47:12.004Z,50.31
2022-09-11T09:50:20.178Z,50.34
2022-09-11T09:53:30.522Z,51.14
2022-09-11T09:56:37.631Z,51.57
2022-09-11T09:59:42.160Z,51.50
2022-09-11T10:02:49.190Z,50.74
2022-09-11T10:05:54.534Z,49.82
2022-09-11T10:09:01.367Z,49.47
2022-09-11T10:12:08.768Z,48.36
2022-09-11T10:15:20.116Z,46.52
2022-09-11T10:18:41.696Z,46.85
2022-09-11T10:21:44.388Z,44.98
2022-09-11T10:24:46.899Z,45.13
2022-09-11T10:28:05.206Z,45.92
2022-09-11T10:31:08.700Z,46.17
2022-09-11T10:34:20.132Z,45.68
2022-09-11T10:37:25.918Z,46.05
2022-09-11T10:40:28.728Z,45.17
2022-09-11T10:43:37.290Z,44.98
2022-09-11T10:46:41.252Z,44.36
2022-09-11T10:49:44.635Z,47.56
2022-09-11T10:53:11.033Z,46.63
2022-09-11T10:56:13.612Z,46.69
2022-09-11T10:59:20.558Z,46.16
2022-09-11T11:02:31.615Z,46.35
2022-09-11T11:05:46.293Z,45.93
2022-09-11T11:09:06.494Z,44.58
2022-09-11T11:12:22.547Z,46.18
2022-09-11T11:15:38.763Z,44.23
2022-09-11T11:18:54.614Z,44.50
2022-09-11T11:22:04.020Z,43.59
2022-09-11T11:25:14.142Z,42.18
2022-09-11T11:28:28.191Z,42.56
2022-09-11T11:31:42.500Z,45.69
2022-09-11T11:35:01.435Z,47.58
2022-09-11T11:38:11.192Z,47.11
2022-09-11T11:41:16.501Z,46.41
2022-09-11T11:44:26.057Z,46.60
2022-09-11T11:47:33.177Z,45.65
2022-09-11T11:50:39.010Z,42.77
2022-09-11T11:53:44.345Z,43.79
2022-09-11T11:56:50.181Z,43.32
2022-09-11T11:59:55.894Z,42.36
2022-09-11T12:03:03.613Z,40.71
2022-09-11T12:06:07.482Z,39.19
2022-09-11T12:09:10.678Z,38.41
2022-09-11T12:12:13.959Z,37.00
2022-09-11T12:15:20.122Z,34.94
2022-09-11T12:18:25.789Z,34.88
2022-09-11T12:21:38.120Z,34.94
2022-09-11T12:24:59.670Z,35.46
2022-09-11T12:28:22.233Z,36.26
2022-09-11T12:31:24.815Z,34.98
2022-09-11T12:35:06.652Z,36.89
2022-09-11T12:38:20.293Z,38.94
2022-09-11T12:41:26.540Z,41.29
2022-09-11T12:44:32.132Z,41.90
2022-09-11T12:47:38.200Z,43.85
2022-09-11T12:50:50.230Z,42.99
2022-09-11T12:53:55.490Z,42.79
2022-09-11T12:57:02.617Z,42.17
2022-09-11T13:00:09.528Z,44.02
2022-09-11T13:03:18.827Z,43.45
2022-09-11T13:06:23.454Z,43.79
2022-09-11T13:09:29.246Z,42.34
2022-09-11T13:12:52.745Z,40.00
2022-09-11T13:15:57.997Z,40.65
2022-09-11T13:19:05.954Z,41.21
2022-09-11T13:22:22.842Z,38.91
2022-09-11T13:25:26.572Z,37.58
2022-09-11T13:28:30.972Z,38.07
2022-09-11T13:31:35.503Z,38.01
2022-09-11T13:34:38.531Z,38.93
2022-09-11T13:37:45.455Z,39.43
2022-09-11T13:40:50.067Z,41.24
2022-09-11T13:43:58.305Z,40.71
2022-09-11T13:47:01.581Z,42.68
2022-09-11T13:50:07.588Z,41.07
2022-09-11T13:53:11.466Z,42.47
2022-09-11T13:56:21.080Z,42.47
2022-09-11T13:59:45.554Z,41.42
2022-09-11T14:02:50.729Z,41.71
2022-09-11T14:05:55.292Z,40.09
2022-09-11T14:08:59.677Z,42.71
2022-09-11T14:12:03.433Z,42.19
2022-09-11T14:15:11.013Z,40.71
2022-09-11T14:18:22.450Z,38.30
2022-09-11T14:21:27.382Z,36.08
2022-09-11T14:24:36.264Z,34.83
2022-09-11T14:27:43.041Z,34.70
2022-09-11T14:30:45.574Z,28.12
2022-09-11T14:33:48.128Z,18.40
2022-09-11T14:36:53.771Z,14.50
2022-09-11T14:39:59.955Z,12.69
2022-09-11T14:43:03.382Z,13.11
2022-09-11T14:46:06.077Z,13.48
2022-09-11T14:49:09.474Z,14.29
2022-09-11T14:52:14.308Z,13.24
2022-09-11T14:55:19.544Z,12.72
2022-09-11T14:58:22.094Z,12.38
2022-09-11T15:01:25.617Z,13.19
2022-09-11T15:04:29.637Z,12.23
2022-09-11T15:07:32.817Z,12.22
2022-09-11T15:10:38.613Z,12.20
2022-09-11T15:13:57.906Z,12.51
2022-09-11T15:17:05.917Z,12.02
2022-09-11T15:20:10.198Z,12.27
2022-09-11T15:23:12.996Z,14.35
2022-09-11T15:26:16.940Z,20.06
2022-09-11T15:29:19.469Z,18.66
2022-09-11T15:32:22.172Z,14.98
2022-09-11T15:35:28.478Z,12.86
2022-09-11T15:38:33.548Z,12.72
2022-09-11T15:41:37.353Z,13.41
2022-09-11T15:44:40.093Z,12.46
2022-09-11T15:47:42.774Z,12.50
2022-09-11T15:50:45.498Z,13.33
2022-09-11T15:53:48.553Z,13.41
2022-09-11T15:56:53.094Z,13.82
2022-09-11T15:59:55.657Z,14.93
2022-09-11T16:02:58.278Z,14.59
2022-09-11T16:06:01.556Z,14.48
2022-09-11T16:09:06.986Z,14.73
2022-09-11T16:12:11.069Z,15.67
2022-09-11T16:15:13.726Z,16.76
2022-09-11T16:18:19.219Z,17.49
2022-09-11T16:21:23.103Z,17.32
2022-09-11T16:24:26.193Z,16.58
2022-09-11T16:27:30.147Z,16.64
2022-09-11T16:30:43.322Z,17.36
2022-09-11T16:33:47.862Z,16.67
2022-09-11T16:36:50.779Z,17.51
2022-09-11T16:39:53.403Z,19.75
2022-09-11T16:42:57.446Z,25.53
2022-09-11T16:46:00.049Z,30.36
2022-09-11T16:49:02.667Z,33.11
2022-09-11T16:52:05.185Z,35.44
2022-09-11T16:55:09.477Z,37.00
2022-09-11T16:58:14.232Z,38.37
2022-09-11T17:01:18.235Z,41.21
2022-09-11T17:04:20.776Z,42.76
2022-09-11T17:07:26.338Z,43.99
2022-09-11T17:10:29.003Z,44.60
2022-09-11T17:13:33.218Z,45.83
2022-09-11T17:16:35.774Z,46.63
2022-09-11T17:19:38.474Z,47.30
2022-09-11T17:22:41.395Z,48.34
2022-09-11T17:25:45.614Z,48.62
2022-09-11T17:28:50.458Z,49.76
2022-09-11T17:32:10.566Z,50.49
2022-09-11T17:35:16.048Z,51.49
2022-09-11T17:38:18.447Z,51.94
2022-09-11T17:41:21.849Z,52.69
2022-09-11T17:44:25.799Z,53.78
2022-09-11T17:47:31.768Z,55.08
2022-09-11T17:50:35.387Z,55.99
2022-09-11T17:53:39.733Z,56.20
2022-09-11T17:56:42.363Z,56.97
2022-09-11T17:59:48.922Z,57.81
2022-09-11T18:02:52.740Z,58.27
2022-09-11T18:05:55.662Z,58.72
2022-09-11T18:09:01.749Z,59.31
2022-09-11T18:12:04.837Z,59.81
2022-09-11T18:15:10.133Z,60.41
2022-09-11T18:18:12.703Z,61.06
2022-09-11T18:21:15.918Z,61.80
2022-09-11T18:24:20.648Z,62.54
2022-09-11T18:27:24.254Z,62.71
2022-09-11T18:30:29.798Z,63.83
2022-09-11T18:33:32.937Z,63.55
2022-09-11T18:36:35.545Z,64.01
2022-09-11T18:39:38.380Z,64.63
2022-09-11T18:42:41.610Z,65.67
2022-09-11T18:45:45.663Z,66.23
2022-09-11T18:48:48.845Z,66.34
2022-09-11T18:51:51.822Z,66.79
2022-09-11T18:54:54.403Z,66.81
2022-09-11T18:57:57.189Z,67.29
2022-09-11T19:01:01.652Z,67.64
2022-09-11T19:04:07.436Z,67.99
2022-09-11T19:07:10.135Z,68.08
2022-09-11T19:10:13.520Z,68.65
2022-09-11T19:13:15.920Z,69.60
2022-09-11T19:16:21.132Z,69.89
2022-09-11T19:19:23.948Z,69.90
2022-09-11T19:22:28.028Z,70.32
2022-09-11T19:25:30.754Z,70.33
2022-09-11T19:28:35.471Z,71.21
2022-09-11T19:31:40.387Z,71.33
2022-09-11T19:34:47.011Z,71.37
2022-09-11T19:37:50.277Z,71.52
2022-09-11T19:40:53.474Z,71.88
2022-09-11T19:43:56.319Z,72.08
2022-09-11T19:47:00.230Z,72.39
2022-09-11T19:50:02.789Z,71.89
2022-09-11T19:53:05.324Z,72.19
2022-09-11T19:56:07.875Z,72.41
2022-09-11T19:59:10.787Z,72.39
2022-09-11T20:02:14.880Z,72.76
2022-09-11T20:05:17.343Z,73.21
2022-09-11T20:08:19.929Z,73.11
2022-09-11T20:11:25.227Z,72.83
2022-09-11T20:14:27.844Z,72.70
2022-09-11T20:17:31.683Z,72.88
2022-09-11T20:20:34.835Z,73.10
2022-09-11T20:23:37.964Z,73.73
2022-09-11T20:26:40.564Z,73.61
2022-09-11T20:29:43.497Z,73.92
2022-09-11T20:32:47.335Z,74.35
2022-09-11T20:35:49.862Z,74.46
2022-09-11T20:38:53.428Z,74.41
2022-09-11T20:41:56.011Z,74.07
2022-09-11T20:45:00.466Z,74.14
2022-09-11T20:48:04.897Z,75.15
2022-09-11T20:51:10.046Z,75.18
2022-09-11T20:54:12.634Z,76.09
2022-09-11T20:57:16.299Z,76.74
2022-09-11T21:00:18.964Z,77.11
2022-09-11T21:03:23.209Z,77.57
2022-09-11T21:06:27.076Z,77.59
2022-09-11T21:09:29.677Z,77.59
2022-09-11T21:12:32.199Z,77.73
2022-09-11T21:15:34.770Z,77.51
2022-09-11T21:18:39.602Z,77.24
2022-09-11T21:21:42.697Z,77.52
2022-09-11T21:24:45.273Z,77.61
2022-09-11T21:27:48.956Z,77.77
2022-09-11T21:30:51.651Z,76.72
2022-09-11T21:33:55.695Z,76.74
2022-09-11T21:36:58.220Z,77.24
2022-09-11T21:40:00.743Z,78.00
2022-09-11T21:43:03.385Z,78.52
2022-09-11T21:46:07.707Z,79.00
2022-09-11T21:49:11.827Z,79.48
2022-09-11T21:52:14.353Z,79.42
2022-09-11T21:55:17.006Z,80.47
2022-09-11T21:58:21.463Z,80.68
2022-09-11T22:01:25.485Z,80.46
2022-09-11T22:04:29.560Z,80.95
2022-09-11T22:07:32.109Z,81.28
2022-09-11T22:10:34.690Z,81.17
2022-09-11T22:13:37.303Z,80.96
2022-09-11T22:16:39.890Z,81.59
2022-09-11T22:19:46.039Z,81.84
2022-09-11T22:22:48.889Z,82.01
2022-09-11T22:25:58.862Z,82.25
2022-09-11T22:29:01.459Z,81.66
2022-09-11T22:32:04.393Z,82.82
2022-09-11T22:35:09.085Z,82.84
2022-09-11T22:38:11.605Z,82.77
2022-09-11T22:41:14.132Z,83.36
2022-09-11T22:44:17.023Z,82.75
2022-09-11T22:47:19.555Z,83.01
2022-09-11T22:50:24.612Z,83.80
2022-09-11T22:53:28.877Z,84.53
2022-09-11T22:56:31.557Z,84.92
2022-09-11T22:59:34.030Z,85.41
2022-09-11T23:02:37.165Z,85.35
2022-09-11T23:05:58.796Z,85.34
2022-09-11T23:09:01.802Z,86.04
2022-09-11T23:12:04.538Z,86.97
2022-09-11T23:15:08.094Z,86.39
2022-09-11T23:18:10.452Z,86.14
2022-09-11T23:21:14.865Z,86.67
2022-09-11T23:24:17.509Z,86.72
2022-09-11T23:27:20.083Z,87.38
2022-09-11T23:30:22.677Z,87.19
2022-09-11T23:33:26.064Z,88.03
2022-09-11T23:36:32.429Z,87.08
2022-09-11T23:39:35.057Z,86.87
2022-09-11T23:42:38.903Z,86.80
2022-09-11T23:45:41.369Z,86.61
2022-09-11T23:48:44.166Z,87.27
2022-09-11T23:51:50.147Z,87.91
2022-09-11T23:54:52.748Z,88.33
2022-09-11T23:57:55.321Z,87.96
